createdAt,value
2022-12-14T00:01:34.693Z,73.30
2022-12-14T00:04:01.297Z,73.68
2022-12-14T00:06:30.918Z,73.68
2022-12-14T00:09:00.370Z,72.98
2022-12-14T00:11:27.245Z,73.43
2022-12-14T00:13:56.561Z,72.69
2022-12-14T00:16:24.962Z,73.57
2022-12-14T00:18:53.852Z,73.16
2022-12-14T00:21:21.496Z,73.25
2022-12-14T00:23:50.633Z,73.27
2022-12-14T00:26:28.881Z,72.89
2022-12-14T00:28:56.162Z,73.35
2022-12-14T00:31:24.173Z,73.28
2022-12-14T00:33:51.640Z,73.86
2022-12-14T00:36:18.504Z,75.13
2022-12-14T00:38:45.306Z,75.81
2022-12-14T00:41:12.685Z,75.51
2022-12-14T00:43:40.930Z,75.17
2022-12-14T00:46:07.968Z,76.60
2022-12-14T00:48:34.969Z,77.14
2022-12-14T00:51:02.585Z,76.72
2022-12-14T00:53:29.449Z,77.34
2022-12-14T00:55:56.087Z,78.08
2022-12-14T00:58:24.884Z,77.30
2022-12-14T01:01:06.062Z,76.49
2022-12-14T01:03:33.819Z,76.29
2022-12-14T01:06:00.974Z,76.82
2022-12-14T01:08:35.458Z,76.77
2022-12-14T01:11:06.863Z,76.29
2022-12-14T01:13:34.178Z,76.32
2022-12-14T01:16:10.595Z,73.09
2022-12-14T01:18:38.485Z,72.94
2022-12-14T01:21:24.173Z,73.20
2022-12-14T01:24:00.259Z,72.96
2022-12-14T01:26:29.290Z,72.49
2022-12-14T01:28:58.768Z,72.91
2022-12-14T01:31:29.876Z,73.39
2022-12-14T01:33:57.022Z,73.86
2022-12-14T01:36:27.121Z,74.79
2022-12-14T01:38:59.629Z,74.39
2022-12-14T01:41:33.798Z,74.78
2022-12-14T01:44:24.890Z,74.86
2022-12-14T01:47:10.594Z,74.44
2022-12-14T01:49:49.934Z,74.37
2022-12-14T01:52:44.112Z,75.22
2022-12-14T01:55:21.429Z,73.00
2022-12-14T01:57:51.790Z,73.53
2022-12-14T02:00:18.439Z,73.68
2022-12-14T02:02:51.658Z,75.81
2022-12-14T02:05:20.828Z,75.90
2022-12-14T02:07:49.872Z,76.14
2022-12-14T02:10:17.696Z,76.74
2022-12-14T02:12:51.070Z,77.10
2022-12-14T02:15:18.355Z,77.07
2022-12-14T02:17:46.632Z,77.58
2022-12-14T02:20:16.237Z,76.62
2022-12-14T02:22:54.986Z,76.74
2022-12-14T02:25:54.317Z,76.51
2022-12-14T02:28:20.875Z,77.09
2022-12-14T02:31:07.065Z,76.75
2022-12-14T02:33:46.342Z,79.29
2022-12-14T02:36:35.233Z,79.09
2022-12-14T02:39:13.946Z,80.02
2022-12-14T02:42:05.488Z,80.14
2022-12-14T02:44:39.145Z,81.90
2022-12-14T02:47:06.633Z,83.63
2022-12-14T02:50:02.414Z,84.40
2022-12-14T02:52:35.093Z,85.03
2022-12-14T02:55:23.218Z,85.01
2022-12-14T02:57:57.329Z,85.14
2022-12-14T03:00:25.193Z,83.13
2022-12-14T03:02:53.306Z,82.88
2022-12-14T03:05:20.058Z,82.89
2022-12-14T03:07:57.375Z,81.76
2022-12-14T03:10:30.322Z,82.32
2022-12-14T03:13:25.704Z,78.09
2022-12-14T03:16:07.280Z,77.19
2022-12-14T03:18:39.487Z,77.14
2022-12-14T03:21:10.416Z,78.02
2022-12-14T03:23:41.639Z,78.14
2022-12-14T03:26:17.227Z,77.08
2022-12-14T03:29:31.124Z,77.77
2022-12-14T03:32:10.718Z,79.25
2022-12-14T03:34:46.152Z,78.55
2022-12-14T03:37:48.770Z,76.57
2022-12-14T03:40:22.823Z,76.61
2022-12-14T03:42:58.529Z,76.75
2022-12-14T03:45:38.817Z,77.18
2022-12-14T03:48:15.325Z,77.27
2022-12-14T03:50:48.584Z,78.13
2022-12-14T03:53:25.592Z,78.38
2022-12-14T03:56:20.088Z,76.82
2022-12-14T03:59:00.158Z,77.00
2022-12-14T04:01:26.869Z,76.30
2022-12-14T04:04:15.124Z,77.47
2022-12-14T04:06:56.464Z,77.90
2022-12-14T04:09:59.035Z,79.01
2022-12-14T04:12:53.916Z,78.81
2022-12-14T04:15:44.521Z,78.94
2022-12-14T04:18:37.237Z,78.86
2022-12-14T04:21:11.974Z,78.64
2022-12-14T04:24:22.081Z,78.28
2022-12-14T04:27:15.425Z,78.90
2022-12-14T04:29:59.181Z,78.60
2022-12-14T04:32:29.021Z,77.81
2022-12-14T04:35:21.980Z,76.05
2022-12-14T04:37:53.311Z,74.84
2022-12-14T04:40:33.209Z,74.45
2022-12-14T04:43:03.432Z,74.36
2022-12-14T04:45:37.727Z,73.17
2022-12-14T04:48:20.735Z,71.65
2022-12-14T04:50:55.542Z,69.97
2022-12-14T04:53:27.816Z,71.13
2022-12-14T04:56:01.303Z,71.44
2022-12-14T04:58:30.704Z,68.92
2022-12-14T05:01:16.370Z,68.21
2022-12-14T05:04:32.733Z,67.67
2022-12-14T05:07:41.587Z,66.56
2022-12-14T05:10:19.083Z,66.38
2022-12-14T05:13:05.436Z,66.86
2022-12-14T05:15:39.227Z,67.59
2022-12-14T05:18:07.539Z,66.50
2022-12-14T05:20:34.193Z,64.59
2022-12-14T05:23:00.960Z,65.51
2022-12-14T05:25:27.668Z,66.09
2022-12-14T05:27:54.305Z,66.68
2022-12-14T05:30:21.173Z,63.92
2022-12-14T05:32:48.013Z,64.67
2022-12-14T05:35:15.465Z,65.51
2022-12-14T05:37:42.717Z,65.42
2022-12-14T05:40:10.181Z,64.73
2022-12-14T05:42:44.155Z,63.51
2022-12-14T05:45:12.709Z,62.20
2022-12-14T05:47:39.797Z,63.30
2022-12-14T05:50:07.633Z,64.34
2022-12-14T05:52:34.586Z,63.43
2022-12-14T05:55:04.602Z,63.32
2022-12-14T05:57:32.450Z,63.63
2022-12-14T05:59:59.131Z,63.63
2022-12-14T06:02:26.127Z,63.03
2022-12-14T06:04:52.842Z,62.79
2022-12-14T06:07:24.547Z,62.69
2022-12-14T06:09:54.397Z,62.60
2022-12-14T06:12:21.163Z,62.87
2022-12-14T06:14:47.770Z,63.50
2022-12-14T06:17:14.405Z,62.94
2022-12-14T06:19:41.024Z,62.20
2022-12-14T06:22:07.620Z,60.82
2022-12-14T06:24:34.440Z,61.69
2022-12-14T06:27:01.162Z,62.75
2022-12-14T06:29:27.894Z,60.83
2022-12-14T06:31:55.411Z,61.00
2022-12-14T06:34:28.045Z,61.76
2022-12-14T06:36:55.253Z,61.57
2022-12-14T06:39:21.873Z,62.10
2022-12-14T06:41:52.003Z,60.77
2022-12-14T06:44:19.089Z,60.26
2022-12-14T06:46:45.854Z,59.44
2022-12-14T06:49:14.462Z,60.25
2022-12-14T06:51:42.623Z,60.90
2022-12-14T06:54:11.753Z,60.02
2022-12-14T06:56:40.738Z,60.13
2022-12-14T06:59:08.858Z,58.96
2022-12-14T07:01:36.393Z,57.74
2022-12-14T07:04:03.180Z,57.93
2022-12-14T07:06:37.901Z,56.74
2022-12-14T07:09:05.543Z,56.71
2022-12-14T07:11:32.486Z,57.58
2022-12-14T07:14:01.630Z,56.73
2022-12-14T07:16:32.227Z,58.00
2022-12-14T07:19:00.452Z,58.16
2022-12-14T07:21:27.539Z,57.44
2022-12-14T07:23:54.307Z,56.48
2022-12-14T07:26:25.243Z,56.33
2022-12-14T07:28:52.738Z,56.53
2022-12-14T07:31:24.951Z,56.58
2022-12-14T07:33:56.575Z,56.90
2022-12-14T07:36:25.125Z,58.10
2022-12-14T07:38:52.589Z,57.14
2022-12-14T07:41:23.096Z,57.29
2022-12-14T07:43:52.077Z,55.92
2022-12-14T07:46:24.103Z,56.29
2022-12-14T07:48:53.766Z,57.57
2022-12-14T07:51:23.166Z,56.17
2022-12-14T07:53:51.123Z,55.95
2022-12-14T07:56:23.619Z,56.03
2022-12-14T07:58:50.272Z,56.25
2022-12-14T08:01:22.585Z,57.29
2022-12-14T08:03:55.282Z,54.50
2022-12-14T08:06:23.515Z,52.82
2022-12-14T08:08:50.406Z,51.66
2022-12-14T08:11:18.089Z,53.49
2022-12-14T08:13:44.882Z,50.78
2022-12-14T08:16:14.187Z,51.67
2022-12-14T08:18:41.996Z,48.42
2022-12-14T08:21:09.817Z,48.29
2022-12-14T08:23:37.760Z,52.33
2022-12-14T08:26:06.699Z,51.25
2022-12-14T08:28:35.752Z,50.79
2022-12-14T08:31:07.584Z,50.15
2022-12-14T08:33:36.157Z,53.57
2022-12-14T08:36:10.740Z,54.20
2022-12-14T08:38:38.331Z,54.21
2022-12-14T08:41:07.132Z,55.83
2022-12-14T08:43:34.374Z,55.20
2022-12-14T08:46:01.297Z,52.40
2022-12-14T08:48:28.143Z,54.15
2022-12-14T08:50:54.875Z,52.35
2022-12-14T08:53:21.622Z,50.03
2022-12-14T08:55:48.421Z,50.16
2022-12-14T08:58:17.306Z,49.96
2022-12-14T09:00:44.111Z,50.20
2022-12-14T09:03:11.997Z,50.46
2022-12-14T09:05:38.704Z,50.21
2022-12-14T09:08:05.681Z,49.94
2022-12-14T09:10:32.341Z,51.53
2022-12-14T09:12:59.124Z,53.31
2022-12-14T09:15:26.397Z,51.52
2022-12-14T09:17:53.236Z,50.20
2022-12-14T09:20:19.853Z,47.18
2022-12-14T09:22:46.593Z,47.26
2022-12-14T09:25:13.307Z,46.59
2022-12-14T09:27:39.960Z,48.31
2022-12-14T09:30:07.015Z,51.23
2022-12-14T09:32:33.651Z,51.06
2022-12-14T09:35:01.420Z,52.85
2022-12-14T09:37:27.983Z,52.61
2022-12-14T09:39:54.789Z,54.51
2022-12-14T09:42:53.672Z,53.78
2022-12-14T09:45:32.444Z,55.07
2022-12-14T09:48:21.155Z,54.40
2022-12-14T09:50:50.824Z,55.17
2022-12-14T09:53:18.789Z,55.24
2022-12-14T09:55:49.919Z,55.17
2022-12-14T09:58:21.037Z,56.22
2022-12-14T10:01:22.243Z,57.36
2022-12-14T10:04:02.330Z,57.07
2022-12-14T10:06:35.477Z,59.06
2022-12-14T10:09:03.146Z,61.14
2022-12-14T10:11:47.819Z,59.15
2022-12-14T10:14:25.008Z,57.67
2022-12-14T10:17:17.495Z,57.99
2022-12-14T10:19:54.468Z,58.35
2022-12-14T10:22:46.638Z,59.97
2022-12-14T10:25:15.743Z,58.69
2022-12-14T10:28:09.720Z,59.68
2022-12-14T10:30:36.165Z,59.90
2022-12-14T10:33:24.167Z,60.83
2022-12-14T10:35:57.899Z,62.04
2022-12-14T10:38:33.931Z,60.62
2022-12-14T10:41:14.013Z,60.30
2022-12-14T10:43:58.283Z,62.40
2022-12-14T10:46:43.584Z,60.68
2022-12-14T10:49:13.320Z,61.67
2022-12-14T10:51:49.783Z,61.57
2022-12-14T10:54:39.511Z,61.59
2022-12-14T10:57:06.217Z,59.29
2022-12-14T10:59:43.719Z,59.59
2022-12-14T11:02:28.169Z,57.24
2022-12-14T11:04:58.505Z,57.23
2022-12-14T11:07:34.026Z,56.58
2022-12-14T11:10:19.172Z,55.01
2022-12-14T11:13:13.671Z,53.31
2022-12-14T11:15:46.046Z,52.75
2022-12-14T11:18:15.858Z,53.88
2022-12-14T11:20:52.255Z,52.05
2022-12-14T11:23:31.158Z,48.75
2022-12-14T11:26:03.944Z,50.47
2022-12-14T11:28:38.185Z,50.29
2022-12-14T11:31:23.023Z,50.32
2022-12-14T11:33:58.273Z,49.82
2022-12-14T11:36:52.649Z,50.29
2022-12-14T11:39:25.084Z,53.06
2022-12-14T11:41:57.758Z,52.59
2022-12-14T11:44:30.994Z,54.50
2022-12-14T11:46:57.647Z,54.73
2022-12-14T11:49:36.181Z,57.71
2022-12-14T11:52:06.006Z,53.68
2022-12-14T11:54:56.023Z,54.05
2022-12-14T11:57:34.427Z,58.61
2022-12-14T12:00:21.700Z,55.30
2022-12-14T12:02:55.528Z,55.14
2022-12-14T12:05:23.750Z,54.10
2022-12-14T12:07:50.378Z,55.39
2022-12-14T12:10:19.745Z,55.82
2022-12-14T12:13:02.230Z,54.56
2022-12-14T12:15:31.959Z,53.91
2022-12-14T12:18:16.439Z,52.23
2022-12-14T12:21:04.640Z,47.52
2022-12-14T12:23:52.638Z,45.82
2022-12-14T12:26:32.500Z,45.38
2022-12-14T12:29:24.395Z,46.47
2022-12-14T12:32:12.229Z,46.10
2022-12-14T12:34:47.969Z,42.99
2022-12-14T12:37:26.856Z,37.45
2022-12-14T12:40:02.339Z,37.71
2022-12-14T12:42:53.707Z,35.30
2022-12-14T12:45:35.654Z,34.34
2022-12-14T12:48:22.445Z,34.56
2022-12-14T12:50:53.477Z,33.69
2022-12-14T12:53:39.122Z,32.91
2022-12-14T12:56:13.561Z,33.33
2022-12-14T12:58:41.252Z,33.17
2022-12-14T13:01:30.945Z,33.76
2022-12-14T13:04:03.184Z,34.05
2022-12-14T13:06:54.598Z,34.10
2022-12-14T13:09:27.246Z,32.68
2022-12-14T13:11:55.234Z,32.13
2022-12-14T13:14:30.846Z,32.19
2022-12-14T13:17:00.797Z,34.06
2022-12-14T13:19:50.709Z,35.87
2022-12-14T13:22:24.925Z,36.01
2022-12-14T13:24:59.002Z,35.85
2022-12-14T13:27:40.850Z,35.25
2022-12-14T13:30:55.882Z,37.11
2022-12-14T13:33:47.215Z,41.13
2022-12-14T13:36:40.110Z,43.17
2022-12-14T13:39:18.813Z,45.76
2022-12-14T13:41:45.409Z,46.79
2022-12-14T13:44:12.036Z,48.78
2022-12-14T13:46:39.055Z,50.09
2022-12-14T13:49:15.838Z,51.25
2022-12-14T13:51:50.242Z,51.96
2022-12-14T13:54:33.320Z,53.30
2022-12-14T13:57:20.735Z,54.64
2022-12-14T13:59:56.307Z,56.18
2022-12-14T14:02:32.576Z,56.83
2022-12-14T14:05:15.747Z,56.38
2022-12-14T14:08:01.840Z,57.75
2022-12-14T14:10:37.577Z,59.33
2022-12-14T14:13:27.569Z,58.85
2022-12-14T14:16:28.430Z,59.21
2022-12-14T14:19:20.881Z,59.71
2022-12-14T14:22:23.345Z,59.49
2022-12-14T14:25:00.732Z,60.46
2022-12-14T14:27:36.560Z,61.89
2022-12-14T14:30:23.036Z,62.76
2022-12-14T14:32:54.004Z,65.31
2022-12-14T14:35:27.885Z,66.86
2022-12-14T14:38:02.979Z,67.12
2022-12-14T14:41:06.654Z,67.49
2022-12-14T14:43:37.822Z,68.31
2022-12-14T14:46:06.825Z,68.85
2022-12-14T14:48:59.699Z,69.69
2022-12-14T14:51:29.688Z,70.78
2022-12-14T14:55:06.539Z,71.50
2022-12-14T14:57:54.030Z,71.03
2022-12-14T15:00:21.760Z,70.33
2022-12-14T15:02:52.173Z,71.74
2022-12-14T15:05:44.751Z,72.50
2022-12-14T15:08:34.465Z,72.76
2022-12-14T15:11:06.425Z,72.63
2022-12-14T15:13:54.024Z,72.23
2022-12-14T15:16:33.940Z,71.66
2022-12-14T15:19:36.860Z,72.79
2022-12-14T15:22:05.446Z,72.83
2022-12-14T15:24:39.000Z,73.51
2022-12-14T15:27:18.189Z,73.73
2022-12-14T15:29:49.386Z,73.88
2022-12-14T15:32:21.594Z,73.76
2022-12-14T15:34:57.419Z,74.22
2022-12-14T15:37:56.467Z,74.58
2022-12-14T15:40:30.639Z,74.08
2022-12-14T15:43:00.092Z,74.31
2022-12-14T15:45:31.380Z,74.51
2022-12-14T15:48:21.992Z,75.08
2022-12-14T15:50:55.505Z,75.13
2022-12-14T15:53:34.626Z,75.09
2022-12-14T15:56:11.822Z,75.38
2022-12-14T15:58:59.780Z,75.73
2022-12-14T16:01:46.107Z,76.00
2022-12-14T16:04:23.594Z,75.65
2022-12-14T16:07:09.568Z,75.83
2022-12-14T16:09:41.235Z,76.30
2022-12-14T16:12:32.489Z,76.02
2022-12-14T16:15:00.778Z,76.92
2022-12-14T16:17:34.158Z,77.40
2022-12-14T16:20:32.037Z,77.97
2022-12-14T16:23:01.630Z,78.22
2022-12-14T16:25:30.113Z,77.94
2022-12-14T16:27:57.193Z,78.17
2022-12-14T16:30:27.528Z,78.29
2022-12-14T16:33:08.436Z,78.13
2022-12-14T16:35:37.668Z,78.07
2022-12-14T16:38:07.689Z,78.37
2022-12-14T16:40:43.770Z,78.29
2022-12-14T16:43:27.225Z,78.86
2022-12-14T16:46:13.969Z,78.26
2022-12-14T16:48:50.361Z,78.11
2022-12-14T16:51:58.207Z,78.62
2022-12-14T16:54:29.939Z,79.55
2022-12-14T16:57:17.229Z,79.63
2022-12-14T16:59:46.658Z,79.88
2022-12-14T17:02:31.887Z,81.12
2022-12-14T17:05:01.316Z,81.45
2022-12-14T17:07:30.642Z,81.84
2022-12-14T17:10:04.543Z,81.73
2022-12-14T17:12:31.249Z,81.26
2022-12-14T17:14:58.014Z,80.64
2022-12-14T17:17:33.464Z,80.21
2022-12-14T17:20:00.625Z,79.74
2022-12-14T17:22:32.847Z,79.04
2022-12-14T17:25:02.470Z,78.71
2022-12-14T17:27:29.460Z,77.99
2022-12-14T17:29:57.427Z,78.34
2022-12-14T17:32:29.249Z,78.36
2022-12-14T17:34:56.183Z,77.94
2022-12-14T17:37:24.724Z,78.20
2022-12-14T17:39:51.683Z,77.58
2022-12-14T17:42:21.776Z,78.36
2022-12-14T17:44:56.013Z,78.42
2022-12-14T17:47:23.000Z,78.30
2022-12-14T17:49:49.651Z,78.01
2022-12-14T17:52:19.896Z,77.47
2022-12-14T17:54:47.199Z,77.43
2022-12-14T17:57:20.267Z,77.88
2022-12-14T17:59:47.979Z,78.22
2022-12-14T18:02:33.420Z,78.24
2022-12-14T18:05:05.023Z,77.83
2022-12-14T18:07:31.742Z,78.73
2022-12-14T18:10:00.900Z,79.03
2022-12-14T18:12:27.624Z,79.08
2022-12-14T18:14:54.532Z,79.18
2022-12-14T18:17:21.201Z,79.12
2022-12-14T18:19:49.477Z,79.08
2022-12-14T18:22:16.751Z,78.75
2022-12-14T18:24:43.508Z,79.10
2022-12-14T18:27:13.676Z,79.20
2022-12-14T18:29:40.389Z,78.78
2022-12-14T18:32:07.079Z,79.12
2022-12-14T18:34:33.849Z,79.26
2022-12-14T18:37:00.456Z,79.57
2022-12-14T18:39:27.105Z,79.49
2022-12-14T18:41:54.866Z,79.18
2022-12-14T18:44:22.401Z,79.04
2022-12-14T18:46:49.267Z,79.42
2022-12-14T18:49:16.218Z,78.69
2022-12-14T18:51:43.321Z,79.25
2022-12-14T18:54:11.647Z,78.44
2022-12-14T18:56:41.146Z,78.97
2022-12-14T18:59:07.779Z,78.58
2022-12-14T19:01:34.741Z,78.73
2022-12-14T19:04:01.604Z,79.50
2022-12-14T19:06:45.265Z,80.57
2022-12-14T19:09:17.100Z,80.74
2022-12-14T19:11:44.147Z,80.88
2022-12-14T19:14:11.436Z,81.47
2022-12-14T19:16:38.596Z,82.36
2022-12-14T19:19:05.226Z,81.96
2022-12-14T19:21:32.193Z,81.79
2022-12-14T19:24:02.129Z,81.36
2022-12-14T19:26:30.751Z,81.15
2022-12-14T19:28:57.600Z,80.93
2022-12-14T19:31:26.390Z,81.44
2022-12-14T19:33:53.902Z,82.01
2022-12-14T19:36:20.502Z,81.02
2022-12-14T19:38:49.188Z,80.85
2022-12-14T19:41:17.778Z,81.23
2022-12-14T19:43:44.637Z,81.35
2022-12-14T19:46:15.678Z,81.66
2022-12-14T19:48:42.539Z,81.42
2022-12-14T19:51:11.825Z,81.12
2022-12-14T19:53:40.457Z,79.76
2022-12-14T19:56:07.270Z,79.26
2022-12-14T19:58:33.963Z,79.19
2022-12-14T20:01:00.905Z,78.90
2022-12-14T20:03:28.857Z,78.60
2022-12-14T20:05:58.792Z,79.14
2022-12-14T20:08:27.888Z,77.83
2022-12-14T20:10:55.631Z,78.69
2022-12-14T20:13:24.395Z,78.15
2022-12-14T20:15:53.527Z,78.15
2022-12-14T20:18:21.946Z,77.81
2022-12-14T20:20:50.027Z,76.27
2022-12-14T20:23:19.333Z,76.17
2022-12-14T20:25:46.180Z,76.59
2022-12-14T20:28:12.907Z,77.39
2022-12-14T20:30:47.301Z,76.98
2022-12-14T20:33:14.302Z,76.78
2022-12-14T20:35:41.001Z,76.62
2022-12-14T20:38:08.221Z,77.28
2022-12-14T20:40:39.016Z,77.22
2022-12-14T20:43:07.924Z,76.51
2022-12-14T20:45:44.040Z,76.65
2022-12-14T20:48:10.861Z,76.39
2022-12-14T20:50:39.340Z,76.84
2022-12-14T20:53:06.686Z,78.28
2022-12-14T20:55:34.259Z,78.57
2022-12-14T20:58:01.449Z,78.92
2022-12-14T21:00:28.500Z,79.78
2022-12-14T21:02:55.378Z,79.99
2022-12-14T21:05:22.365Z,80.74
2022-12-14T21:07:49.148Z,82.13
2022-12-14T21:10:15.975Z,81.28
2022-12-14T21:12:42.778Z,83.21
2022-12-14T21:15:09.655Z,82.00
2022-12-14T21:17:36.360Z,82.91
2022-12-14T21:20:03.633Z,83.69
2022-12-14T21:22:30.745Z,83.48
2022-12-14T21:25:04.096Z,84.75
2022-12-14T21:27:32.702Z,85.32
2022-12-14T21:30:00.642Z,85.13
2022-12-14T21:32:28.232Z,86.30
2022-12-14T21:34:54.863Z,85.83
2022-12-14T21:37:22.872Z,87.00
2022-12-14T21:39:54.612Z,87.65
2022-12-14T21:42:25.724Z,87.19
2022-12-14T21:44:53.587Z,87.73
2022-12-14T21:47:29.979Z,87.33
2022-12-14T21:49:57.024Z,88.96
2022-12-14T21:52:29.214Z,89.30
2022-12-14T21:54:56.233Z,89.68
2022-12-14T21:57:49.745Z,89.86
2022-12-14T22:00:17.860Z,90.38
2022-12-14T22:02:44.596Z,91.00
2022-12-14T22:05:11.827Z,90.71
2022-12-14T22:07:38.660Z,91.10
2022-12-14T22:10:05.852Z,91.33
2022-12-14T22:12:32.570Z,91.92
2022-12-14T22:14:59.192Z,92.53
2022-12-14T22:17:25.905Z,93.29
2022-12-14T22:19:54.807Z,93.92
2022-12-14T22:22:21.478Z,94.62
2022-12-14T22:24:49.737Z,94.31
2022-12-14T22:27:20.423Z,94.98
2022-12-14T22:29:47.039Z,94.99
2022-12-14T22:32:14.411Z,96.02
2022-12-14T22:34:41.163Z,96.30
2022-12-14T22:37:07.903Z,96.37
2022-12-14T22:39:34.502Z,96.15
2022-12-14T22:42:01.074Z,96.19
2022-12-14T22:44:28.258Z,97.08
2022-12-14T22:46:55.053Z,97.08
2022-12-14T22:49:21.699Z,96.55
2022-12-14T22:51:48.328Z,96.76
2022-12-14T22:54:22.493Z,96.77
2022-12-14T22:56:56.819Z,97.25
2022-12-14T22:59:35.559Z,98.54
2022-12-14T23:02:02.802Z,99.14
2022-12-14T23:04:30.235Z,100.00
2022-12-14T23:06:56.996Z,100.00
2022-12-14T23:09:42.293Z,100.00
2022-12-14T23:12:27.344Z,100.00
2022-12-14T23:15:12.265Z,100.00
2022-12-14T23:18:06.246Z,100.00
2022-12-14T23:20:51.578Z,100.00
2022-12-14T23:23:36.986Z,100.00
2022-12-14T23:26:23.028Z,100.00
2022-12-14T23:29:08.476Z,100.00
2022-12-14T23:31:54.025Z,100.00
2022-12-14T23:34:39.226Z,100.00
2022-12-14T23:37:24.362Z,100.00
2022-12-14T23:40:09.200Z,100.00
2022-12-14T23:42:54.526Z,100.00
2022-12-14T23:45:39.337Z,100.00
2022-12-14T23:48:24.685Z,100.00
2022-12-14T23:51:09.470Z,100.00
2022-12-14T23:53:54.853Z,100.00
2022-12-14T23:56:40.364Z,100.00
2022-12-14T23:59:31.502Z,100.00
